Time,TemperatureF,DewpointF,PressureIn,WindDirection,WindDirectionDegrees,WindSpeedMPH,WindSpeedGustMPH,Humidity,HourlyPrecipIn,Conditions,Clouds,dailyrainin,SoftwareType,DateUTC
2013-03-11 00:02:00,39.0,33.7,30.31,East,85,0.0,0.0,81,0.00,,,0.00,Wunderground v.1.15,2013-03-11 04:02:00,
2013-03-11 00:07:00,39.0,33.7,30.31,East,90,1.0,2.0,81,0.00,,,0.00,Wunderground v.1.15,2013-03-11 04:07:00,
2013-03-11 00:12:00,38.8,33.8,30.31,ENE,67,1.0,1.0,82,0.00,,,0.00,Wunderground v.1.15,2013-03-11 04:12:00,
2013-03-11 00:18:00,38.6,33.6,30.30,ENE,69,1.0,3.0,82,0.00,,,0.00,Wunderground v.1.15,2013-03-11 04:18:00,
2013-03-11 00:27:00,38.4,33.4,30.30,ENE,69,1.0,2.0,82,0.00,,,0.00,Wunderground v.1.15,2013-03-11 04:27:00,
2013-03-11 00:33:00,38.3,33.6,30.31,East,82,1.0,1.0,83,0.00,,,0.00,Wunderground v.1.15,2013-03-11 04:33:00,
2013-03-11 00:42:00,38.0,33.3,30.30,East,82,0.0,1.0,83,0.00,,,0.00,Wunderground v.1.15,2013-03-11 04:42:00,
2013-03-11 00:48:00,37.9,33.2,30.30,East,100,1.0,1.0,83,0.00,,,0.00,Wunderground v.1.15,2013-03-11 04:48:00,
2013-03-11 00:53:00,37.8,33.4,30.29,East,100,1.0,1.0,84,0.00,,,0.00,Wunderground v.1.15,2013-03-11 04:53:00,
2013-03-11 00:58:00,37.7,33.3,30.29,East,92,1.0,1.0,84,0.00,,,0.00,Wunderground v.1.15,2013-03-11 04:58:00,
2013-03-11 01:04:00,37.5,33.1,30.29,ESE,109,0.0,0.0,84,0.00,,,0.00,Wunderground v.1.15,2013-03-11 05:04:00,
2013-03-11 01:13:00,37.2,33.1,30.29,East,89,0.0,0.0,85,0.00,,,0.00,Wunderground v.1.15,2013-03-11 05:13:00,
2013-03-11 01:19:00,37.1,33.0,30.28,ESE,107,0.0,0.0,85,0.00,,,0.00,Wunderground v.1.15,2013-03-11 05:19:00,
2013-03-11 01:28:00,36.8,33.0,30.29,ESE,107,0.0,0.0,86,0.00,,,0.00,Wunderground v.1.15,2013-03-11 05:28:00,
2013-03-11 01:34:00,36.6,32.8,30.29,ESE,107,0.0,0.0,86,0.00,,,0.00,Wunderground v.1.15,2013-03-11 05:34:00,
2013-03-11 01:43:00,36.3,32.8,30.29,ESE,107,0.0,0.0,87,0.00,,,0.00,Wunderground v.1.15,2013-03-11 05:43:00,
2013-03-11 01:49:00,36.2,32.7,30.29,East,89,0.0,1.0,87,0.00,,,0.00,Wunderground v.1.15,2013-03-11 05:49:00,
2013-03-11 01:58:00,36.2,33.3,30.29,South,179,1.0,1.0,89,0.00,,,0.00,Wunderground v.1.15,2013-03-11 05:58:00,
2013-03-11 02:04:00,36.4,33.5,30.28,South,179,0.0,0.0,89,0.00,,,0.00,Wunderground v.1.15,2013-03-11 06:04:00,
2013-03-11 02:13:00,36.6,33.7,30.28,SE,128,0.0,0.0,89,0.00,,,0.00,Wunderground v.1.15,2013-03-11 06:13:00,
2013-03-11 02:18:00,36.8,34.1,30.29,SE,128,0.0,0.0,90,0.00,,,0.00,Wunderground v.1.15,2013-03-11 06:18:00,
2013-03-11 02:28:00,37.0,34.1,30.28,SE,128,0.0,0.0,89,0.00,,,0.00,Wunderground v.1.15,2013-03-11 06:28:00,
2013-03-11 02:34:00,37.0,34.1,30.28,SE,128,0.0,0.0,89,0.00,,,0.00,Wunderground v.1.15,2013-03-11 06:34:00,
2013-03-11 02:43:00,37.1,34.4,30.29,SE,128,0.0,0.0,90,0.00,,,0.00,Wunderground v.1.15,2013-03-11 06:43:00,
2013-03-11 02:48:00,37.3,34.6,30.28,SE,128,0.0,0.0,90,0.00,,,0.00,Wunderground v.1.15,2013-03-11 06:48:00,
2013-03-11 02:58:00,37.4,34.5,30.28,SE,128,0.0,0.0,89,0.00,,,0.00,Wunderground v.1.15,2013-03-11 06:58:00,
2013-03-11 03:03:00,37.4,34.5,30.27,SE,136,0.0,0.0,89,0.00,,,0.00,Wunderground v.1.15,2013-03-11 07:03:00,
2013-03-11 03:13:00,37.5,34.6,30.27,SE,142,0.0,0.0,89,0.00,,,0.00,Wunderground v.1.15,2013-03-11 07:13:00,
2013-03-11 03:18:00,37.6,34.7,30.26,SE,142,0.0,0.0,89,0.00,,,0.00,Wunderground v.1.15,2013-03-11 07:18:00,
2013-03-11 03:28:00,37.8,35.1,30.26,SE,142,0.0,0.0,90,0.00,,,0.00,Wunderground v.1.15,2013-03-11 07:28:00,
2013-03-11 03:33:00,37.9,34.9,30.27,SE,142,0.0,0.0,89,0.00,,,0.00,Wunderground v.1.15,2013-03-11 07:33:00,
2013-03-11 03:43:00,37.9,34.9,30.27,SE,142,0.0,0.0,89,0.00,,,0.00,Wunderground v.1.15,2013-03-11 07:43:00,
2013-03-11 03:48:00,37.9,34.9,30.26,SE,142,0.0,0.0,89,0.00,,,0.00,Wunderground v.1.15,2013-03-11 07:48:00,
2013-03-11 03:58:00,37.9,34.9,30.26,SE,142,0.0,0.0,89,0.00,,,0.00,Wunderground v.1.15,2013-03-11 07:58:00,
2013-03-11 04:03:00,38.0,35.0,30.27,SW,220,0.0,0.0,89,0.00,,,0.00,Wunderground v.1.15,2013-03-11 08:03:00,
2013-03-11 04:12:00,38.0,35.0,30.25,SE,137,0.0,0.0,89,0.00,,,0.00,Wunderground v.1.15,2013-03-11 08:12:00,
2013-03-11 04:18:00,38.1,35.4,30.26,SE,137,0.0,0.0,90,0.00,,,0.00,Wunderground v.1.15,2013-03-11 08:18:00,
2013-03-11 04:27:00,38.2,35.5,30.26,SE,137,0.0,0.0,90,0.00,,,0.00,Wunderground v.1.15,2013-03-11 08:27:00,
2013-03-11 04:33:00,38.2,35.5,30.26,SE,137,0.0,0.0,90,0.00,,,0.00,Wunderground v.1.15,2013-03-11 08:33:00,
2013-03-11 04:42:00,38.2,35.8,30.25,SE,137,0.0,0.0,91,0.00,,,0.00,Wunderground v.1.15,2013-03-11 08:42:00,
2013-03-11 04:48:00,38.3,35.9,30.24,SE,137,0.0,0.0,91,0.00,,,0.00,Wunderground v.1.15,2013-03-11 08:48:00,
2013-03-11 04:57:00,38.3,36.2,30.24,SE,136,0.0,0.0,92,0.00,,,0.00,Wunderground v.1.15,2013-03-11 08:57:00,
2013-03-11 05:03:00,38.3,35.9,30.24,East,99,0.0,1.0,91,0.00,,,0.00,Wunderground v.1.15,2013-03-11 09:03:00,
2013-03-11 05:12:00,38.0,35.6,30.24,East,82,0.0,0.0,91,0.00,,,0.00,Wunderground v.1.15,2013-03-11 09:12:00,
2013-03-11 05:18:00,38.0,35.9,30.24,East,82,0.0,0.0,92,0.00,,,0.00,Wunderground v.1.15,2013-03-11 09:18:00,
2013-03-11 05:27:00,37.9,35.8,30.24,East,82,0.0,0.0,92,0.00,,,0.00,Wunderground v.1.15,2013-03-11 09:27:00,
2013-03-11 05:33:00,37.9,36.1,30.24,East,82,0.0,0.0,93,0.00,,,0.00,Wunderground v.1.15,2013-03-11 09:33:00,
2013-03-11 05:42:00,38.0,36.2,30.24,East,98,0.0,0.0,93,0.00,,,0.00,Wunderground v.1.15,2013-03-11 09:42:00,
2013-03-11 05:48:00,38.1,36.5,30.24,East,98,0.0,0.0,94,0.00,,,0.00,Wunderground v.1.15,2013-03-11 09:48:00,
2013-03-11 05:57:00,38.2,36.6,30.24,East,98,0.0,0.0,94,0.00,,,0.00,Wunderground v.1.15,2013-03-11 09:57:00,
2013-03-11 06:03:00,38.2,36.6,30.24,East,98,0.0,0.0,94,0.00,,,0.00,Wunderground v.1.15,2013-03-11 10:03:00,
2013-03-11 06:12:00,38.2,36.6,30.24,East,98,0.0,0.0,94,0.00,,,0.00,Wunderground v.1.15,2013-03-11 10:12:00,
2013-03-11 06:18:00,38.2,36.6,30.24,ESE,104,0.0,0.0,94,0.00,,,0.00,Wunderground v.1.15,2013-03-11 10:18:00,
2013-03-11 06:27:00,38.1,36.5,30.24,ESE,104,0.0,0.0,94,0.00,,,0.00,Wunderground v.1.15,2013-03-11 10:27:00,
2013-03-11 06:33:00,38.1,36.5,30.24,ESE,104,0.0,0.0,94,0.00,,,0.00,Wunderground v.1.15,2013-03-11 10:33:00,
2013-03-11 06:42:00,38.0,36.4,30.24,East,83,0.0,1.0,94,0.00,,,0.00,Wunderground v.1.15,2013-03-11 10:42:00,
2013-03-11 06:48:00,38.1,36.8,30.23,East,101,0.0,1.0,95,0.00,,,0.00,Wunderground v.1.15,2013-03-11 10:48:00,
2013-03-11 06:57:00,38.1,36.8,30.23,East,100,0.0,0.0,95,0.00,,,0.00,Wunderground v.1.15,2013-03-11 10:57:00,
2013-03-11 07:03:00,38.1,36.8,30.22,ESE,112,0.0,0.0,95,0.00,,,0.00,Wunderground v.1.15,2013-03-11 11:03:00,
2013-03-11 07:12:00,38.2,36.9,30.22,ESE,121,0.0,1.0,95,0.00,,,0.00,Wunderground v.1.15,2013-03-11 11:12:00,
2013-03-11 07:18:00,38.2,36.9,30.23,ESE,115,0.0,1.0,95,0.00,,,0.00,Wunderground v.1.15,2013-03-11 11:18:00,
2013-03-11 07:27:00,38.2,36.9,30.23,ESE,112,0.0,0.0,95,0.00,,,0.00,Wunderground v.1.15,2013-03-11 11:27:00,
2013-03-11 07:33:00,38.3,37.0,30.23,ESE,112,0.0,0.0,95,0.00,,,0.00,Wunderground v.1.15,2013-03-11 11:33:00,
2013-03-11 07:42:00,38.3,37.0,30.23,ESE,112,0.0,0.0,95,0.00,,,0.00,Wunderground v.1.15,2013-03-11 11:42:00,
2013-03-11 07:48:00,38.3,37.0,30.23,ESE,112,0.0,0.0,95,0.00,,,0.00,Wunderground v.1.15,2013-03-11 11:48:00,
2013-03-11 07:57:00,38.4,37.1,30.23,ESE,112,0.0,0.0,95,0.00,,,0.00,Wunderground v.1.15,2013-03-11 11:57:00,
2013-03-11 08:03:00,38.5,37.2,30.24,ESE,112,0.0,0.0,95,0.00,,,0.00,Wunderground v.1.15,2013-03-11 12:03:00,
2013-03-11 08:12:00,38.7,37.7,30.24,ESE,112,0.0,0.0,96,0.00,,,0.00,Wunderground v.1.15,2013-03-11 12:12:00,
2013-03-11 08:18:00,38.8,37.8,30.24,ESE,112,0.0,0.0,96,0.00,,,0.00,Wunderground v.1.15,2013-03-11 12:18:00,
2013-03-11 08:27:00,39.0,38.0,30.24,SSE,153,0.0,0.0,96,0.00,,,0.00,Wunderground v.1.15,2013-03-11 12:27:00,
2013-03-11 08:33:00,39.3,38.3,30.24,SSW,194,0.0,2.0,96,0.00,,,0.00,Wunderground v.1.15,2013-03-11 12:33:00,
2013-03-11 08:42:00,39.6,38.6,30.24,South,171,1.0,2.0,96,0.00,,,0.00,Wunderground v.1.15,2013-03-11 12:42:00,
2013-03-11 08:48:00,39.8,38.8,30.24,South,180,1.0,2.0,96,0.00,,,0.00,Wunderground v.1.15,2013-03-11 12:48:00,
2013-03-11 08:57:00,40.0,39.0,30.24,South,180,0.0,1.0,96,0.00,,,0.00,Wunderground v.1.15,2013-03-11 12:57:00,
2013-03-11 09:03:00,40.1,39.1,30.24,South,171,0.0,1.0,96,0.00,,,0.00,Wunderground v.1.15,2013-03-11 13:03:00,
2013-03-11 09:12:00,40.4,39.4,30.24,SSE,148,0.0,0.0,96,0.00,,,0.00,Wunderground v.1.15,2013-03-11 13:12:00,
2013-03-11 09:18:00,40.6,39.5,30.24,South,175,0.0,2.0,96,0.00,,,0.00,Wunderground v.1.15,2013-03-11 13:18:00,
2013-03-11 09:27:00,41.0,39.7,30.23,South,177,1.0,2.0,95,0.00,,,0.00,Wunderground v.1.15,2013-03-11 13:27:00,
2013-03-11 09:32:00,41.1,39.5,30.23,South,178,1.0,1.0,94,0.00,,,0.00,Wunderground v.1.15,2013-03-11 13:32:00,
2013-03-11 09:42:00,41.6,40.0,30.23,ESE,108,0.0,0.0,94,0.00,,,0.00,Wunderground v.1.15,2013-03-11 13:42:00,
2013-03-11 09:48:00,42.0,40.1,30.23,SSE,154,0.0,0.0,93,0.00,,,0.00,Wunderground v.1.15,2013-03-11 13:48:00,
2013-03-11 09:57:00,42.2,40.0,30.24,South,178,0.0,2.0,92,0.00,,,0.00,Wunderground v.1.15,2013-03-11 13:57:00,
2013-03-11 10:03:00,42.2,39.8,30.23,ESE,103,1.0,1.0,91,0.00,,,0.00,Wunderground v.1.15,2013-03-11 14:03:00,
2013-03-11 10:12:00,42.2,39.8,30.24,ENE,77,0.0,0.0,91,0.00,,,0.00,Wunderground v.1.15,2013-03-11 14:12:00,
2013-03-11 10:18:00,42.2,39.8,30.24,ENE,77,0.0,0.0,91,0.00,,,0.00,Wunderground v.1.15,2013-03-11 14:18:00,
2013-03-11 10:27:00,42.2,40.0,30.23,East,86,1.0,1.0,92,0.00,,,0.00,Wunderground v.1.15,2013-03-11 14:27:00,
2013-03-11 10:33:00,42.2,40.0,30.23,ENE,69,1.0,1.0,92,0.00,,,0.00,Wunderground v.1.15,2013-03-11 14:33:00,
2013-03-11 10:42:00,42.5,40.3,30.23,East,80,1.0,2.0,92,0.00,,,0.00,Wunderground v.1.15,2013-03-11 14:42:00,
2013-03-11 10:47:00,42.5,40.3,30.22,East,86,1.0,2.0,92,0.00,,,0.00,Wunderground v.1.15,2013-03-11 14:47:00,
2013-03-11 10:57:00,43.0,40.6,30.22,ENE,78,1.0,1.0,91,0.00,,,0.00,Wunderground v.1.15,2013-03-11 14:57:00,
2013-03-11 11:03:00,43.2,40.5,30.22,ESE,112,0.0,1.0,90,0.00,,,0.00,Wunderground v.1.15,2013-03-11 15:03:00,
2013-03-11 11:12:00,43.9,41.2,30.23,SE,125,0.0,0.0,90,0.00,,,0.00,Wunderground v.1.15,2013-03-11 15:12:00,
2013-03-11 11:18:00,44.3,41.0,30.23,South,187,0.0,1.0,88,0.00,,,0.00,Wunderground v.1.15,2013-03-11 15:18:00,
2013-03-11 11:27:00,44.7,41.1,30.23,South,180,0.0,0.0,87,0.00,,,0.00,Wunderground v.1.15,2013-03-11 15:27:00,
2013-03-11 11:33:00,45.2,41.3,30.23,WNW,282,0.0,0.0,86,0.00,,,0.00,Wunderground v.1.15,2013-03-11 15:33:00,
2013-03-11 11:42:00,45.8,41.5,30.22,South,177,1.0,1.0,85,0.00,,,0.00,Wunderground v.1.15,2013-03-11 15:42:00,
2013-03-11 11:47:00,46.3,41.4,30.21,SSW,192,1.0,1.0,83,0.00,,,0.00,Wunderground v.1.15,2013-03-11 15:47:00,
2013-03-11 11:54:00,47.1,41.9,30.21,East,98,1.0,2.0,82,0.00,,,0.00,Wunderground v.1.15,2013-03-11 15:54:00,
2013-03-11 12:04:00,47.7,41.8,30.21,East,84,1.0,1.0,80,0.00,,,0.00,Wunderground v.1.15,2013-03-11 16:04:00,
2013-03-11 12:13:00,48.4,42.2,30.21,ESE,103,0.0,2.0,79,0.00,,,0.00,Wunderground v.1.15,2013-03-11 16:13:00,
2013-03-11 12:18:00,48.4,41.9,30.20,ENE,78,1.0,2.0,78,0.00,,,0.00,Wunderground v.1.15,2013-03-11 16:18:00,
2013-03-11 12:28:00,48.1,41.9,30.20,South,176,2.0,3.0,79,0.00,,,0.00,Wunderground v.1.15,2013-03-11 16:28:00,
2013-03-11 12:33:00,48.6,42.4,30.20,ENE,60,1.0,3.0,79,0.00,,,0.00,Wunderground v.1.15,2013-03-11 16:33:00,
2013-03-11 12:43:00,49.1,42.5,30.20,ENE,74,1.0,1.0,78,0.00,,,0.00,Wunderground v.1.15,2013-03-11 16:43:00,
2013-03-11 12:48:00,49.0,42.4,30.20,East,89,1.0,1.0,78,0.00,,,0.00,Wunderground v.1.15,2013-03-11 16:48:00,
2013-03-11 12:58:00,49.4,42.8,30.20,East,94,1.0,1.0,78,0.00,,,0.00,Wunderground v.1.15,2013-03-11 16:58:00,
2013-03-11 13:03:00,49.9,42.6,30.19,SW,217,1.0,3.0,76,0.00,,,0.00,Wunderground v.1.15,2013-03-11 17:03:00,
2013-03-11 13:13:00,50.2,42.6,30.19,South,182,2.0,2.0,75,0.00,,,0.00,Wunderground v.1.15,2013-03-11 17:13:00,
2013-03-11 13:18:00,50.3,42.7,30.19,ESE,107,1.0,2.0,75,0.00,,,0.00,Wunderground v.1.15,2013-03-11 17:18:00,
2013-03-11 13:28:00,50.9,42.9,30.18,ESE,103,1.0,1.0,74,0.00,,,0.00,Wunderground v.1.15,2013-03-11 17:28:00,
2013-03-11 13:33:00,51.5,43.1,30.18,East,98,1.0,1.0,73,0.00,,,0.00,Wunderground v.1.15,2013-03-11 17:33:00,
2013-03-11 13:43:00,52.3,43.9,30.18,ENE,75,1.0,1.0,73,0.00,,,0.00,Wunderground v.1.15,2013-03-11 17:43:00,
2013-03-11 13:48:00,53.1,43.6,30.17,SSW,194,1.0,1.0,70,0.00,,,0.00,Wunderground v.1.15,2013-03-11 17:48:00,
2013-03-11 13:58:00,54.0,43.7,30.17,ENE,74,1.0,4.0,68,0.00,,,0.00,Wunderground v.1.15,2013-03-11 17:58:00,
2013-03-11 14:03:00,53.9,43.6,30.16,ENE,78,1.0,1.0,68,0.00,,,0.00,Wunderground v.1.15,2013-03-11 18:03:00,
2013-03-11 14:13:00,54.7,42.8,30.15,SSW,196,0.0,2.0,64,0.00,,,0.00,Wunderground v.1.15,2013-03-11 18:13:00,
2013-03-11 14:19:00,55.3,42.1,30.15,East,99,1.0,2.0,61,0.00,,,0.00,Wunderground v.1.15,2013-03-11 18:19:00,
2013-03-11 14:28:00,55.4,41.7,30.15,SSW,198,0.0,2.0,60,0.00,,,0.00,Wunderground v.1.15,2013-03-11 18:28:00,
2013-03-11 14:33:00,55.1,40.6,30.14,SSW,203,1.0,1.0,58,0.00,,,0.00,Wunderground v.1.15,2013-03-11 18:33:00,
2013-03-11 14:43:00,55.6,41.0,30.14,SSE,150,1.0,1.0,58,0.00,,,0.00,Wunderground v.1.15,2013-03-11 18:43:00,
2013-03-11 14:48:00,55.8,41.2,30.14,SE,139,1.0,1.0,58,0.00,,,0.00,Wunderground v.1.15,2013-03-11 18:48:00,
2013-03-11 14:58:00,56.4,40.9,30.13,SSE,155,0.0,1.0,56,0.00,,,0.00,Wunderground v.1.15,2013-03-11 18:58:00,
2013-03-11 15:03:00,56.5,41.0,30.13,East,88,0.0,0.0,56,0.00,,,0.00,Wunderground v.1.15,2013-03-11 19:03:00,
2013-03-11 15:13:00,56.2,40.7,30.13,SE,137,1.0,1.0,56,0.00,,,0.00,Wunderground v.1.15,2013-03-11 19:13:00,
2013-03-11 15:18:00,55.9,39.0,30.13,SSE,157,1.0,1.0,53,0.00,,,0.00,Wunderground v.1.15,2013-03-11 19:18:00,
2013-03-11 15:27:00,56.4,40.4,30.12,East,88,1.0,1.0,55,0.00,,,0.00,Wunderground v.1.15,2013-03-11 19:27:00,
2013-03-11 15:33:00,56.8,41.7,30.11,East,83,1.0,3.0,57,0.00,,,0.00,Wunderground v.1.15,2013-03-11 19:33:00,
2013-03-11 15:42:00,56.2,41.6,30.11,ESE,117,2.0,2.0,58,0.00,,,0.00,Wunderground v.1.15,2013-03-11 19:42:00,
2013-03-11 15:48:00,56.2,42.1,30.11,ENE,67,1.0,2.0,59,0.00,,,0.00,Wunderground v.1.15,2013-03-11 19:48:00,
2013-03-11 15:57:00,56.1,41.5,30.11,East,85,2.0,3.0,58,0.00,,,0.00,Wunderground v.1.15,2013-03-11 19:57:00,
2013-03-11 16:03:00,55.8,42.1,30.11,WSW,244,2.0,2.0,60,0.00,,,0.00,Wunderground v.1.15,2013-03-11 20:03:00,
2013-03-11 16:12:00,55.9,41.3,30.11,SE,126,1.0,2.0,58,0.00,,,0.00,Wunderground v.1.15,2013-03-11 20:12:00,
2013-03-11 16:18:00,56.0,41.4,30.11,East,95,1.0,3.0,58,0.00,,,0.00,Wunderground v.1.15,2013-03-11 20:18:00,
2013-03-11 16:28:00,55.8,41.2,30.10,South,171,1.0,1.0,58,0.00,,,0.00,Wunderground v.1.15,2013-03-11 20:28:00,
2013-03-11 16:33:00,55.8,41.2,30.10,SE,145,1.0,1.0,58,0.00,,,0.00,Wunderground v.1.15,2013-03-11 20:33:00,
2013-03-11 16:43:00,55.7,40.7,30.10,West,263,1.0,1.0,57,0.00,,,0.00,Wunderground v.1.15,2013-03-11 20:43:00,
2013-03-11 16:48:00,55.8,40.8,30.10,SW,223,1.0,2.0,57,0.00,,,0.00,Wunderground v.1.15,2013-03-11 20:48:00,
2013-03-11 16:58:00,55.8,40.8,30.09,SSW,194,2.0,4.0,57,0.00,,,0.00,Wunderground v.1.15,2013-03-11 20:58:00,
2013-03-11 17:03:00,55.9,40.9,30.09,SSW,196,1.0,1.0,57,0.00,,,0.00,Wunderground v.1.15,2013-03-11 21:03:00,
2013-03-11 17:13:00,56.1,41.1,30.09,West,269,1.0,1.0,57,0.00,,,0.00,Wunderground v.1.15,2013-03-11 21:13:00,
2013-03-11 17:18:00,56.2,40.7,30.09,ENE,77,1.0,1.0,56,0.00,,,0.00,Wunderground v.1.15,2013-03-11 21:18:00,
2013-03-11 17:28:00,56.4,41.3,30.08,SSW,194,1.0,2.0,57,0.00,,,0.00,Wunderground v.1.15,2013-03-11 21:28:00,
2013-03-11 17:33:00,56.5,41.0,30.08,South,181,1.0,1.0,56,0.00,,,0.00,Wunderground v.1.15,2013-03-11 21:33:00,
2013-03-11 17:43:00,56.6,41.5,30.08,SE,140,1.0,1.0,57,0.00,,,0.00,Wunderground v.1.15,2013-03-11 21:43:00,
2013-03-11 17:48:00,56.6,41.5,30.07,SSE,151,1.0,1.0,57,0.00,,,0.00,Wunderground v.1.15,2013-03-11 21:48:00,
2013-03-11 17:58:00,56.4,41.3,30.07,West,260,1.0,1.0,57,0.00,,,0.00,Wunderground v.1.15,2013-03-11 21:58:00,
2013-03-11 18:03:00,56.4,41.8,30.06,South,175,2.0,2.0,58,0.00,,,0.00,Wunderground v.1.15,2013-03-11 22:03:00,
2013-03-11 18:12:00,56.4,41.8,30.06,SSE,149,1.0,1.0,58,0.00,,,0.00,Wunderground v.1.15,2013-03-11 22:12:00,
2013-03-11 18:18:00,56.4,41.8,30.06,South,189,1.0,1.0,58,0.00,,,0.00,Wunderground v.1.15,2013-03-11 22:18:00,
2013-03-11 18:27:00,56.3,42.1,30.06,ESE,105,1.0,1.0,59,0.00,,,0.00,Wunderground v.1.15,2013-03-11 22:27:00,
2013-03-11 18:33:00,56.1,42.8,30.06,East,82,1.0,2.0,61,0.00,,,0.00,Wunderground v.1.15,2013-03-11 22:33:00,
2013-03-11 18:42:00,55.7,43.3,30.06,ENE,71,1.0,5.0,63,0.00,,,0.00,Wunderground v.1.15,2013-03-11 22:42:00,
2013-03-11 18:48:00,55.3,43.7,30.07,SSE,157,1.0,5.0,65,0.00,,,0.00,Wunderground v.1.15,2013-03-11 22:48:00,
2013-03-11 18:57:00,54.8,44.4,30.06,SE,130,2.0,2.0,68,0.00,,,0.00,Wunderground v.1.15,2013-03-11 22:57:00,
2013-03-11 19:03:00,54.4,44.4,30.07,ESE,108,2.0,2.0,69,0.00,,,0.00,Wunderground v.1.15,2013-03-11 23:03:00,
2013-03-11 19:12:00,53.8,44.6,30.07,ESE,117,2.0,2.0,71,0.00,,,0.00,Wunderground v.1.15,2013-03-11 23:12:00,
2013-03-11 19:18:00,53.5,44.7,30.06,East,92,2.0,3.0,72,0.00,,,0.00,Wunderground v.1.15,2013-03-11 23:18:00,
2013-03-11 19:27:00,53.2,44.8,30.07,SSE,160,3.0,3.0,73,0.00,,,0.00,Wunderground v.1.15,2013-03-11 23:27:00,
2013-03-11 19:33:00,53.0,44.9,30.07,SSE,154,3.0,3.0,74,0.00,,,0.00,Wunderground v.1.15,2013-03-11 23:33:00,
2013-03-11 19:42:00,52.7,44.6,30.08,ESE,104,1.0,1.0,74,0.00,,,0.00,Wunderground v.1.15,2013-03-11 23:42:00,
2013-03-11 19:48:00,52.5,44.8,30.08,East,84,1.0,1.0,75,0.00,,,0.00,Wunderground v.1.15,2013-03-11 23:48:00,
2013-03-11 19:57:00,52.2,44.5,30.08,SSW,199,1.0,1.0,75,0.00,,,0.00,Wunderground v.1.15,2013-03-11 23:57:00,
2013-03-11 20:03:00,52.2,44.9,30.08,ENE,76,1.0,2.0,76,0.00,,,0.00,Wunderground v.1.15,2013-03-12 00:03:00,
2013-03-11 20:12:00,52.2,44.9,30.07,South,177,1.0,2.0,76,0.00,,,0.00,Wunderground v.1.15,2013-03-12 00:12:00,
2013-03-11 20:18:00,52.3,45.0,30.07,South,185,1.0,4.0,76,0.00,,,0.00,Wunderground v.1.15,2013-03-12 00:18:00,
2013-03-11 20:27:00,52.4,45.4,30.07,East,81,2.0,3.0,77,0.00,,,0.00,Wunderground v.1.15,2013-03-12 00:27:00,
2013-03-11 20:33:00,52.4,45.7,30.07,SE,133,2.0,6.0,78,0.00,,,0.00,Wunderground v.1.15,2013-03-12 00:33:00,
2013-03-11 20:42:00,52.5,45.8,30.06,SSE,157,2.0,2.0,78,0.00,,,0.00,Wunderground v.1.15,2013-03-12 00:42:00,
2013-03-11 20:48:00,52.4,45.7,30.07,South,180,1.0,2.0,78,0.00,,,0.00,Wunderground v.1.15,2013-03-12 00:48:00,
2013-03-11 20:57:00,52.2,45.9,30.06,SSE,148,2.0,7.0,79,0.00,,,0.00,Wunderground v.1.15,2013-03-12 00:57:00,
2013-03-11 21:03:00,52.1,46.1,30.06,South,178,2.0,2.0,80,0.00,,,0.00,Wunderground v.1.15,2013-03-12 01:03:00,
2013-03-11 21:12:00,52.0,46.3,30.07,SSW,199,2.0,3.0,81,0.00,,,0.00,Wunderground v.1.15,2013-03-12 01:12:00,
2013-03-11 21:18:00,51.9,46.3,30.06,East,92,2.0,3.0,81,0.00,,,0.00,Wunderground v.1.15,2013-03-12 01:18:00,
2013-03-11 21:27:00,51.7,46.4,30.06,SSE,150,2.0,2.0,82,0.00,,,0.00,Wunderground v.1.15,2013-03-12 01:27:00,
2013-03-11 21:33:00,51.6,46.3,30.07,SE,126,1.0,1.0,82,0.00,,,0.00,Wunderground v.1.15,2013-03-12 01:33:00,
2013-03-11 21:42:00,51.6,46.3,30.07,ESE,112,1.0,1.0,82,0.00,,,0.00,Wunderground v.1.15,2013-03-12 01:42:00,
2013-03-11 21:48:00,51.4,46.4,30.07,SSW,202,1.0,2.0,83,0.00,,,0.00,Wunderground v.1.15,2013-03-12 01:48:00,
2013-03-11 21:58:00,51.5,46.8,30.08,SSE,164,1.0,2.0,84,0.00,,,0.00,Wunderground v.1.15,2013-03-12 01:58:00,
2013-03-11 22:04:00,51.6,46.9,30.08,South,184,1.0,1.0,84,0.00,,,0.00,Wunderground v.1.15,2013-03-12 02:04:00,
2013-03-11 22:13:00,51.6,46.9,30.08,SSW,197,1.0,1.0,84,0.00,,,0.00,Wunderground v.1.15,2013-03-12 02:13:00,
2013-03-11 22:19:00,51.8,47.4,30.08,ENE,71,1.0,1.0,85,0.00,,,0.00,Wunderground v.1.15,2013-03-12 02:19:00,
2013-03-11 22:28:00,51.7,47.3,30.08,West,277,1.0,1.0,85,0.00,,,0.00,Wunderground v.1.15,2013-03-12 02:28:00,
2013-03-11 22:34:00,51.8,47.4,30.08,West,271,1.0,2.0,85,0.00,,,0.00,Wunderground v.1.15,2013-03-12 02:34:00,
2013-03-11 22:43:00,51.8,47.7,30.06,SE,124,1.0,1.0,86,0.00,,,0.00,Wunderground v.1.15,2013-03-12 02:43:00,
2013-03-11 22:49:00,51.8,47.7,30.06,SW,214,2.0,2.0,86,0.00,,,0.00,Wunderground v.1.15,2013-03-12 02:49:00,
2013-03-11 22:58:00,51.8,48.1,30.05,SW,215,1.0,2.0,87,0.00,,,0.00,Wunderground v.1.15,2013-03-12 02:58:00,
2013-03-11 23:04:00,51.8,48.1,30.05,SSW,198,2.0,2.0,87,0.00,,,0.00,Wunderground v.1.15,2013-03-12 03:04:00,
2013-03-11 23:13:00,51.8,48.1,30.06,East,101,2.0,2.0,87,0.00,,,0.00,Wunderground v.1.15,2013-03-12 03:13:00,
2013-03-11 23:18:00,51.8,48.1,30.05,SSW,194,2.0,4.0,87,0.00,,,0.00,Wunderground v.1.15,2013-03-12 03:18:00,
2013-03-11 23:28:00,51.8,48.1,30.04,West,263,1.0,2.0,87,0.00,,,0.00,Wunderground v.1.15,2013-03-12 03:28:00,
2013-03-11 23:34:00,51.8,48.1,30.05,SSW,196,1.0,3.0,87,0.00,,,0.00,Wunderground v.1.15,2013-03-12 03:34:00,
2013-03-11 23:43:00,52.1,48.3,30.04,SSE,165,3.0,3.0,87,0.00,,,0.00,Wunderground v.1.15,2013-03-12 03:43:00,
2013-03-11 23:48:00,52.2,48.4,30.04,West,261,2.0,3.0,87,0.00,,,0.00,Wunderground v.1.15,2013-03-12 03:48:00,
2013-03-11 23:58:00,52.3,48.2,30.04,ESE,112,2.0,4.0,86,0.00,,,0.00,Wunderground v.1.15,2013-03-12 03:58:00,